sensor_id;sensor_type;location;lat;lon;timestamp;temperature;humidity
66119;DHT22;52912;48.564;9.302;2024-03-23T12:19:15;8.02;79.40
66119;DHT22;52912;48.564;9.302;2024-03-23T12:21:41;7.92;78.44
66119;DHT22;52912;48.564;9.302;2024-03-23T12:24:07;7.87;78.34
66119;DHT22;52912;48.564;9.302;2024-03-23T12:26:34;8.01;78.63
66119;DHT22;52912;48.564;9.302;2024-03-23T12:29:00;8.06;78.60
66119;DHT22;52912;48.564;9.302;2024-03-23T12:31:26;7.83;78.01
66119;DHT22;52912;48.564;9.302;2024-03-23T12:33:51;7.91;79.47
66119;DHT22;52912;48.564;9.302;2024-03-23T12:36:18;7.73;80.32
66119;DHT22;52912;48.564;9.302;2024-03-23T12:38:45;7.70;81.80
66119;DHT22;52912;48.564;9.302;2024-03-23T12:41:10;7.75;82.81
66119;DHT22;52912;48.564;9.302;2024-03-23T12:43:36;7.71;82.87
66119;DHT22;52912;48.564;9.302;2024-03-23T12:46:03;7.38;83.22
66119;DHT22;52912;48.564;9.302;2024-03-23T12:48:29;7.32;84.23
66119;DHT22;52912;48.564;9.302;2024-03-23T12:50:55;7.16;83.99
66119;DHT22;52912;48.564;9.302;2024-03-23T12:53:22;7.84;82.82
66119;DHT22;52912;48.564;9.302;2024-03-23T12:55:48;8.57;82.04
66119;DHT22;52912;48.564;9.302;2024-03-23T12:58:14;8.57;81.98
66119;DHT22;52912;48.564;9.302;2024-03-23T13:00:39;9.30;80.93
66119;DHT22;52912;48.564;9.302;2024-03-23T13:03:05;9.37;80.45
66119;DHT22;52912;48.564;9.302;2024-03-23T13:05:31;9.35;80.72
66119;DHT22;52912;48.564;9.302;2024-03-23T13:07:56;9.42;80.74
66119;DHT22;52912;48.564;9.302;2024-03-23T13:10:23;9.91;80.05
66119;DHT22;52912;48.564;9.302;2024-03-23T13:12:49;9.44;80.73
66119;DHT22;52912;48.564;9.302;2024-03-23T13:15:14;9.57;79.92
66119;DHT22;52912;48.564;9.302;2024-03-23T13:17:40;9.63;79.07
66119;DHT22;52912;48.564;9.302;2024-03-23T13:20:06;9.78;79.13
66119;DHT22;52912;48.564;9.302;2024-03-23T13:22:32;9.61;79.53
66119;DHT22;52912;48.564;9.302;2024-03-23T13:24:57;9.42;78.24
66119;DHT22;52912;48.564;9.302;2024-03-23T13:27:24;9.40;79.33
66119;DHT22;52912;48.564;9.302;2024-03-23T13:29:50;9.30;80.24
66119;DHT22;52912;48.564;9.302;2024-03-23T13:32:15;8.84;80.42
66119;DHT22;52912;48.564;9.302;2024-03-23T13:34:41;8.78;84.46
66119;DHT22;52912;48.564;9.302;2024-03-23T13:37:06;8.45;84.00
66119;DHT22;52912;48.564;9.302;2024-03-23T13:39:32;8.32;84.99
66119;DHT22;52912;48.564;9.302;2024-03-23T13:41:57;8.61;86.71
66119;DHT22;52912;48.564;9.302;2024-03-23T13:44:24;9.48;85.10
66119;DHT22;52912;48.564;9.302;2024-03-23T13:46:50;10.33;82.12
66119;DHT22;52912;48.564;9.302;2024-03-23T13:49:25;10.22;80.36
66119;DHT22;52912;48.564;9.302;2024-03-23T13:51:51;10.72;81.78
66119;DHT22;52912;48.564;9.302;2024-03-23T13:54:16;10.97;77.84
66119;DHT22;52912;48.564;9.302;2024-03-23T13:56:42;11.61;75.98
66119;DHT22;52912;48.564;9.302;2024-03-23T13:59:07;11.29;75.18
66119;DHT22;52912;48.564;9.302;2024-03-23T14:01:34;10.82;75.18
66119;DHT22;52912;48.564;9.302;2024-03-23T14:04:00;11.05;74.06
66119;DHT22;52912;48.564;9.302;2024-03-23T14:06:26;10.72;75.13
66119;DHT22;52912;48.564;9.302;2024-03-23T14:08:51;10.40;76.51
66119;DHT22;52912;48.564;9.302;2024-03-23T14:11:18;10.05;76.87
66119;DHT22;52912;48.564;9.302;2024-03-23T14:13:44;9.55;77.91
66119;DHT22;52912;48.564;9.302;2024-03-23T14:16:09;9.40;78.03
66119;DHT22;52912;48.564;9.302;2024-03-23T14:18:36;9.14;78.78
66119;DHT22;52912;48.564;9.302;2024-03-23T14:21:02;9.04;77.55
66119;DHT22;52912;48.564;9.302;2024-03-23T14:23:28;8.89;77.68
66119;DHT22;52912;48.564;9.302;2024-03-23T14:25:54;8.95;77.93
66119;DHT22;52912;48.564;9.302;2024-03-23T14:28:19;8.77;78.31
66119;DHT22;52912;48.564;9.302;2024-03-23T14:30:45;8.82;78.43
66119;DHT22;52912;48.564;9.302;2024-03-23T14:33:10;8.92;77.06
66119;DHT22;52912;48.564;9.302;2024-03-23T14:35:37;9.53;76.19
66119;DHT22;52912;48.564;9.302;2024-03-23T14:38:03;9.98;74.27
66119;DHT22;52912;48.564;9.302;2024-03-23T14:40:29;10.63;71.89
66119;DHT22;52912;48.564;9.302;2024-03-23T14:42:54;11.06;70.77
66119;DHT22;52912;48.564;9.302;2024-03-23T14:45:20;11.33;70.75
66119;DHT22;52912;48.564;9.302;2024-03-23T14:47:46;11.36;70.15
66119;DHT22;52912;48.564;9.302;2024-03-23T14:50:11;11.05;69.26
66119;DHT22;52912;48.564;9.302;2024-03-23T14:52:38;11.57;69.34
66119;DHT22;52912;48.564;9.302;2024-03-23T14:55:04;11.47;69.27
66119;DHT22;52912;48.564;9.302;2024-03-23T14:57:30;11.02;70.20
66119;DHT22;52912;48.564;9.302;2024-03-23T14:59:55;10.60;71.49
66119;DHT22;52912;48.564;9.302;2024-03-23T15:02:21;10.29;72.43
66119;DHT22;52912;48.564;9.302;2024-03-23T15:04:46;10.05;73.58
66119;DHT22;52912;48.564;9.302;2024-03-23T15:07:11;9.69;74.18
66119;DHT22;52912;48.564;9.302;2024-03-23T15:09:38;8.87;78.37
66119;DHT22;52912;48.564;9.302;2024-03-23T15:12:04;8.36;84.18
66119;DHT22;52912;48.564;9.302;2024-03-23T15:14:30;7.66;87.74
66119;DHT22;52912;48.564;9.302;2024-03-23T15:16:55;7.22;89.25
66119;DHT22;52912;48.564;9.302;2024-03-23T15:19:21;7.45;89.24
66119;DHT22;52912;48.564;9.302;2024-03-23T15:21:46;8.32;89.46
66119;DHT22;52912;48.564;9.302;2024-03-23T15:24:12;8.52;88.18
66119;DHT22;52912;48.564;9.302;2024-03-23T15:26:39;8.74;86.57
66119;DHT22;52912;48.564;9.302;2024-03-23T15:29:04;9.11;85.54
66119;DHT22;52912;48.564;9.302;2024-03-23T15:31:30;9.14;83.83
66119;DHT22;52912;48.564;9.302;2024-03-23T15:33:55;9.08;82.70
66119;DHT22;52912;48.564;9.302;2024-03-23T15:36:21;9.48;83.26
66119;DHT22;52912;48.564;9.302;2024-03-23T15:38:46;9.39;81.50
66119;DHT22;52912;48.564;9.302;2024-03-23T15:41:12;9.77;82.58
66119;DHT22;52912;48.564;9.302;2024-03-23T15:43:39;9.29;82.01
66119;DHT22;52912;48.564;9.302;2024-03-23T15:46:05;8.98;83.41
66119;DHT22;52912;48.564;9.302;2024-03-23T15:48:32;8.60;83.64
66119;DHT22;52912;48.564;9.302;2024-03-23T15:50:58;8.47;84.22
66119;DHT22;52912;48.564;9.302;2024-03-23T15:53:26;8.37;84.75
66119;DHT22;52912;48.564;9.302;2024-03-23T15:55:53;8.33;84.95
66119;DHT22;52912;48.564;9.302;2024-03-23T15:58:19;8.35;84.77
66119;DHT22;52912;48.564;9.302;2024-03-23T16:00:45;8.56;85.24
66119;DHT22;52912;48.564;9.302;2024-03-23T16:03:11;8.39;85.73
66119;DHT22;52912;48.564;9.302;2024-03-23T16:05:36;8.52;86.78
66119;DHT22;52912;48.564;9.302;2024-03-23T16:08:02;8.47;85.70
66119;DHT22;52912;48.564;9.302;2024-03-23T16:10:27;8.43;86.15
66119;DHT22;52912;48.564;9.302;2024-03-23T16:12:53;8.46;86.61
66119;DHT22;52912;48.564;9.302;2024-03-23T16:15:18;8.12;85.98
66119;DHT22;52912;48.564;9.302;2024-03-23T16:17:45;8.21;86.78
66119;DHT22;52912;48.564;9.302;2024-03-23T16:20:11;7.97;87.59
66119;DHT22;52912;48.564;9.302;2024-03-23T16:22:37;7.92;87.69
66119;DHT22;52912;48.564;9.302;2024-03-23T16:25:03;7.85;87.71
66119;DHT22;52912;48.564;9.302;2024-03-23T16:27:28;7.95;87.47
66119;DHT22;52912;48.564;9.302;2024-03-23T16:29:54;7.85;86.98
66119;DHT22;52912;48.564;9.302;2024-03-23T16:32:19;7.87;87.79
66119;DHT22;52912;48.564;9.302;2024-03-23T16:34:46;7.92;87.50
66119;DHT22;52912;48.564;9.302;2024-03-23T16:37:11;7.85;86.42
66119;DHT22;52912;48.564;9.302;2024-03-23T16:39:37;7.85;86.53
66119;DHT22;52912;48.564;9.302;2024-03-23T16:42:03;7.94;87.47
66119;DHT22;52912;48.564;9.302;2024-03-23T16:44:28;8.08;86.97
66119;DHT22;52912;48.564;9.302;2024-03-23T16:46:54;7.90;83.76
66119;DHT22;52912;48.564;9.302;2024-03-23T16:49:20;7.88;82.51
66119;DHT22;52912;48.564;9.302;2024-03-23T16:51:47;7.57;82.81
66119;DHT22;52912;48.564;9.302;2024-03-23T16:54:12;7.53;83.52
66119;DHT22;52912;48.564;9.302;2024-03-23T16:56:37;7.64;84.08
66119;DHT22;52912;48.564;9.302;2024-03-23T16:59:03;7.66;83.78
66119;DHT22;52912;48.564;9.302;2024-03-23T17:01:29;7.73;83.24
66119;DHT22;52912;48.564;9.302;2024-03-23T17:03:54;7.66;82.75
66119;DHT22;52912;48.564;9.302;2024-03-23T17:06:20;7.63;82.62
66119;DHT22;52912;48.564;9.302;2024-03-23T17:08:47;7.57;83.22
66119;DHT22;52912;48.564;9.302;2024-03-23T17:11:12;7.38;83.27
66119;DHT22;52912;48.564;9.302;2024-03-23T17:13:38;7.22;82.73
66119;DHT22;52912;48.564;9.302;2024-03-23T17:16:04;7.28;82.94
66119;DHT22;52912;48.564;9.302;2024-03-23T17:18:31;6.97;82.46
66119;DHT22;52912;48.564;9.302;2024-03-23T17:20:59;6.87;83.45
66119;DHT22;52912;48.564;9.302;2024-03-23T17:23:24;6.67;83.36
66119;DHT22;52912;48.564;9.302;2024-03-23T17:25:52;6.54;83.48
66119;DHT22;52912;48.564;9.302;2024-03-23T17:28:17;6.53;83.70
66119;DHT22;52912;48.564;9.302;2024-03-23T17:30:43;6.42;84.22
66119;DHT22;52912;48.564;9.302;2024-03-23T17:33:08;6.46;84.89
66119;DHT22;52912;48.564;9.302;2024-03-23T17:35:34;6.43;84.89
66119;DHT22;52912;48.564;9.302;2024-03-23T17:37:59;6.36;84.86
66119;DHT22;52912;48.564;9.302;2024-03-23T17:40:25;6.25;85.12
66119;DHT22;52912;48.564;9.302;2024-03-23T17:42:52;6.29;85.52
66119;DHT22;52912;48.564;9.302;2024-03-23T17:45:17;6.21;85.80
66119;DHT22;52912;48.564;9.302;2024-03-23T17:47:43;6.14;86.29
66119;DHT22;52912;48.564;9.302;2024-03-23T17:50:09;6.28;86.26
66119;DHT22;52912;48.564;9.302;2024-03-23T17:52:35;6.25;85.56
66119;DHT22;52912;48.564;9.302;2024-03-23T17:55:01;6.29;85.48
66119;DHT22;52912;48.564;9.302;2024-03-23T17:57:27;6.31;85.96
66119;DHT22;52912;48.564;9.302;2024-03-23T17:59:54;6.43;86.05
66119;DHT22;52912;48.564;9.302;2024-03-23T18:02:19;6.28;86.03
66119;DHT22;52912;48.564;9.302;2024-03-23T18:04:45;6.26;86.00
66119;DHT22;52912;48.564;9.302;2024-03-23T18:07:10;6.29;86.98
66119;DHT22;52912;48.564;9.302;2024-03-23T18:09:36;6.26;87.13
66119;DHT22;52912;48.564;9.302;2024-03-23T18:12:01;6.22;88.17
66119;DHT22;52912;48.564;9.302;2024-03-23T18:14:27;5.70;90.53
66119;DHT22;52912;48.564;9.302;2024-03-23T18:16:54;5.60;91.74
66119;DHT22;52912;48.564;9.302;2024-03-23T18:19:20;5.50;92.01
66119;DHT22;52912;48.564;9.302;2024-03-23T18:21:45;5.31;92.19
66119;DHT22;52912;48.564;9.302;2024-03-23T18:24:11;5.30;92.60
66119;DHT22;52912;48.564;9.302;2024-03-23T18:26:36;5.28;93.26
66119;DHT22;52912;48.564;9.302;2024-03-23T18:29:01;5.27;93.37
66119;DHT22;52912;48.564;9.302;2024-03-23T18:31:29;5.22;93.38
66119;DHT22;52912;48.564;9.302;2024-03-23T18:33:56;5.15;93.13
66119;DHT22;52912;48.564;9.302;2024-03-23T18:36:22;5.08;93.40
66119;DHT22;52912;48.564;9.302;2024-03-23T18:38:47;5.05;93.68
66119;DHT22;52912;48.564;9.302;2024-03-23T18:41:13;5.08;93.70
66119;DHT22;52912;48.564;9.302;2024-03-23T18:43:38;5.05;93.75
66119;DHT22;52912;48.564;9.302;2024-03-23T18:46:04;5.10;93.84
66119;DHT22;52912;48.564;9.302;2024-03-23T18:48:29;5.04;93.53
66119;DHT22;52912;48.564;9.302;2024-03-23T18:50:56;5.08;92.88
66119;DHT22;52912;48.564;9.302;2024-03-23T18:53:21;5.03;92.43
66119;DHT22;52912;48.564;9.302;2024-03-23T18:55:54;5.17;92.50
66119;DHT22;52912;48.564;9.302;2024-03-23T18:58:20;4.97;92.47
66119;DHT22;52912;48.564;9.302;2024-03-23T19:00:45;5.04;93.07
66119;DHT22;52912;48.564;9.302;2024-03-23T19:03:11;4.91;93.03
66119;DHT22;52912;48.564;9.302;2024-03-23T19:05:36;5.00;92.67
66119;DHT22;52912;48.564;9.302;2024-03-23T19:08:03;5.08;92.01
66119;DHT22;52912;48.564;9.302;2024-03-23T19:10:29;5.03;91.75
66119;DHT22;52912;48.564;9.302;2024-03-23T19:12:55;4.94;91.92
66119;DHT22;52912;48.564;9.302;2024-03-23T19:15:20;4.88;91.55
66119;DHT22;52912;48.564;9.302;2024-03-23T19:17:46;4.88;92.11
66119;DHT22;52912;48.564;9.302;2024-03-23T19:20:13;4.87;92.30
66119;DHT22;52912;48.564;9.302;2024-03-23T19:22:38;5.00;91.30
66119;DHT22;52912;48.564;9.302;2024-03-23T19:25:06;4.94;91.02
66119;DHT22;52912;48.564;9.302;2024-03-23T19:27:32;4.81;91.38
66119;DHT22;52912;48.564;9.302;2024-03-23T19:29:57;4.87;91.35
66119;DHT22;52912;48.564;9.302;2024-03-23T19:32:24;4.86;90.95
66119;DHT22;52912;48.564;9.302;2024-03-23T19:34:50;4.90;91.38
66119;DHT22;52912;48.564;9.302;2024-03-23T19:37:15;4.88;91.14
66119;DHT22;52912;48.564;9.302;2024-03-23T19:39:40;4.86;91.26
66119;DHT22;52912;48.564;9.302;2024-03-23T19:42:07;4.86;90.00
66119;DHT22;52912;48.564;9.302;2024-03-23T19:44:33;4.84;90.26
66119;DHT22;52912;48.564;9.302;2024-03-23T19:46:58;4.84;90.48
66119;DHT22;52912;48.564;9.302;2024-03-23T19:49:24;4.76;90.46
66119;DHT22;52912;48.564;9.302;2024-03-23T19:51:49;4.76;90.62
66119;DHT22;52912;48.564;9.302;2024-03-23T19:54:15;4.76;90.55
66119;DHT22;52912;48.564;9.302;2024-03-23T19:56:40;4.79;90.16
66119;DHT22;52912;48.564;9.302;2024-03-23T19:59:07;4.79;90.52
66119;DHT22;52912;48.564;9.302;2024-03-23T20:01:32;4.69;90.11
66119;DHT22;52912;48.564;9.302;2024-03-23T20:03:58;4.66;90.53
66119;DHT22;52912;48.564;9.302;2024-03-23T20:06:23;4.69;90.31
66119;DHT22;52912;48.564;9.302;2024-03-23T20:08:50;4.60;90.36
66119;DHT22;52912;48.564;9.302;2024-03-23T20:11:15;4.52;90.79
66119;DHT22;52912;48.564;9.302;2024-03-23T20:13:41;4.60;91.15
66119;DHT22;52912;48.564;9.302;2024-03-23T20:16:08;4.58;90.98
66119;DHT22;52912;48.564;9.302;2024-03-23T20:18:33;4.44;91.05
66119;DHT22;52912;48.564;9.302;2024-03-23T20:21:00;4.46;91.26
66119;DHT22;52912;48.564;9.302;2024-03-23T20:23:25;4.45;90.72
66119;DHT22;52912;48.564;9.302;2024-03-23T20:25:51;4.34;91.02
66119;DHT22;52912;48.564;9.302;2024-03-23T20:28:17;4.37;90.84
66119;DHT22;52912;48.564;9.302;2024-03-23T20:30:42;4.40;91.03
66119;DHT22;52912;48.564;9.302;2024-03-23T20:33:09;4.44;91.04
66119;DHT22;52912;48.564;9.302;2024-03-23T20:35:34;4.46;91.03
66119;DHT22;52912;48.564;9.302;2024-03-23T20:38:00;4.42;91.36
66119;DHT22;52912;48.564;9.302;2024-03-23T20:40:25;4.35;91.39
66119;DHT22;52912;48.564;9.302;2024-03-23T20:42:51;4.31;91.42
66119;DHT22;52912;48.564;9.302;2024-03-23T20:45:16;4.42;91.38
66119;DHT22;52912;48.564;9.302;2024-03-23T20:47:42;4.44;91.30
66119;DHT22;52912;48.564;9.302;2024-03-23T20:50:09;4.46;91.80
66119;DHT22;52912;48.564;9.302;2024-03-23T20:52:34;4.44;91.72
66119;DHT22;52912;48.564;9.302;2024-03-23T20:55:00;4.38;91.45
66119;DHT22;52912;48.564;9.302;2024-03-23T20:57:25;4.49;91.64
66119;DHT22;52912;48.564;9.302;2024-03-23T20:59:51;4.51;91.75
66119;DHT22;52912;48.564;9.302;2024-03-23T21:02:16;4.46;91.48
66119;DHT22;52912;48.564;9.302;2024-03-23T21:04:42;4.45;91.73
66119;DHT22;52912;48.564;9.302;2024-03-23T21:07:08;4.58;91.08
66119;DHT22;52912;48.564;9.302;2024-03-23T21:09:34;4.56;91.44
66119;DHT22;52912;48.564;9.302;2024-03-23T21:11:59;4.52;91.20
66119;DHT22;52912;48.564;9.302;2024-03-23T21:14:25;4.53;90.99
66119;DHT22;52912;48.564;9.302;2024-03-23T21:16:50;4.49;90.66
66119;DHT22;52912;48.564;9.302;2024-03-23T21:19:16;4.58;90.80
66119;DHT22;52912;48.564;9.302;2024-03-23T21:21:41;4.65;91.01
66119;DHT22;52912;48.564;9.302;2024-03-23T21:24:08;4.59;90.68
66119;DHT22;52912;48.564;9.302;2024-03-23T21:26:33;4.51;90.59
66119;DHT22;52912;48.564;9.302;2024-03-23T21:28:59;4.55;90.86
66119;DHT22;52912;48.564;9.302;2024-03-23T21:31:24;4.53;90.88
66119;DHT22;52912;48.564;9.302;2024-03-23T21:33:50;4.53;90.90
66119;DHT22;52912;48.564;9.302;2024-03-23T21:36:15;4.53;90.81
66119;DHT22;52912;48.564;9.302;2024-03-23T21:38:41;4.49;90.97
66119;DHT22;52912;48.564;9.302;2024-03-23T21:41:07;4.53;90.88
66119;DHT22;52912;48.564;9.302;2024-03-23T21:43:33;4.49;90.79
66119;DHT22;52912;48.564;9.302;2024-03-23T21:45:59;4.46;90.86
66119;DHT22;52912;48.564;9.302;2024-03-23T21:48:25;4.42;91.03
66119;DHT22;52912;48.564;9.302;2024-03-23T21:50:51;4.42;91.09
66119;DHT22;52912;48.564;9.302;2024-03-23T21:53:16;4.40;91.31
66119;DHT22;52912;48.564;9.302;2024-03-23T21:55:49;4.44;91.54
66119;DHT22;52912;48.564;9.302;2024-03-23T21:58:16;4.46;91.65
66119;DHT22;52912;48.564;9.302;2024-03-23T22:00:42;4.52;91.09
66119;DHT22;52912;48.564;9.302;2024-03-23T22:03:07;4.45;91.64
66119;DHT22;52912;48.564;9.302;2024-03-23T22:05:33;4.45;91.90
66119;DHT22;52912;48.564;9.302;2024-03-23T22:07:58;4.46;91.81
66119;DHT22;52912;48.564;9.302;2024-03-23T22:10:24;4.40;90.76
66119;DHT22;52912;48.564;9.302;2024-03-23T22:12:49;4.52;91.08
66119;DHT22;52912;48.564;9.302;2024-03-23T22:15:16;4.46;90.98
66119;DHT22;52912;48.564;9.302;2024-03-23T22:17:41;4.49;91.22
66119;DHT22;52912;48.564;9.302;2024-03-23T22:20:08;4.41;91.03
66119;DHT22;52912;48.564;9.302;2024-03-23T22:22:33;4.37;91.08
66119;DHT22;52912;48.564;9.302;2024-03-23T22:24:59;4.31;90.97
66119;DHT22;52912;48.564;9.302;2024-03-23T22:27:24;4.28;90.44
66119;DHT22;52912;48.564;9.302;2024-03-23T22:29:50;4.28;90.57
66119;DHT22;52912;48.564;9.302;2024-03-23T22:32:16;4.37;90.08
66119;DHT22;52912;48.564;9.302;2024-03-23T22:34:42;4.32;90.37
66119;DHT22;52912;48.564;9.302;2024-03-23T22:37:07;4.27;90.11
66119;DHT22;52912;48.564;9.302;2024-03-23T22:39:33;4.37;90.00
66119;DHT22;52912;48.564;9.302;2024-03-23T22:41:58;4.32;90.02
66119;DHT22;52912;48.564;9.302;2024-03-23T22:44:24;4.22;90.02
66119;DHT22;52912;48.564;9.302;2024-03-23T22:46:50;4.22;90.41
66119;DHT22;52912;48.564;9.302;2024-03-23T22:49:16;4.34;89.85
66119;DHT22;52912;48.564;9.302;2024-03-23T22:51:42;4.35;89.84
66119;DHT22;52912;48.564;9.302;2024-03-23T22:54:07;4.42;89.30
66119;DHT22;52912;48.564;9.302;2024-03-23T22:56:33;4.32;89.60
66119;DHT22;52912;48.564;9.302;2024-03-23T22:58:58;4.32;89.67
66119;DHT22;52912;48.564;9.302;2024-03-23T23:01:24;4.46;89.10
66119;DHT22;52912;48.564;9.302;2024-03-23T23:03:49;4.44;89.10
66119;DHT22;52912;48.564;9.302;2024-03-23T23:06:16;4.46;88.85
66119;DHT22;52912;48.564;9.302;2024-03-23T23:08:41;4.42;89.00
66119;DHT22;52912;48.564;9.302;2024-03-23T23:11:07;4.41;88.79
66119;DHT22;52912;48.564;9.302;2024-03-23T23:13:32;4.48;89.00
66119;DHT22;52912;48.564;9.302;2024-03-23T23:15:58;4.53;88.38
66119;DHT22;52912;48.564;9.302;2024-03-23T23:18:23;4.49;88.62
66119;DHT22;52912;48.564;9.302;2024-03-23T23:20:48;4.53;88.63
66119;DHT22;52912;48.564;9.302;2024-03-23T23:23:15;4.48;88.66
66119;DHT22;52912;48.564;9.302;2024-03-23T23:25:41;4.51;88.58
66119;DHT22;52912;48.564;9.302;2024-03-23T23:28:06;4.51;88.80
66119;DHT22;52912;48.564;9.302;2024-03-23T23:30:32;4.53;88.95
66119;DHT22;52912;48.564;9.302;2024-03-23T23:32:57;4.49;88.80
66119;DHT22;52912;48.564;9.302;2024-03-23T23:35:23;4.51;89.11
66119;DHT22;52912;48.564;9.302;2024-03-23T23:37:50;4.49;89.34
66119;DHT22;52912;48.564;9.302;2024-03-23T23:40:17;4.51;89.19
66119;DHT22;52912;48.564;9.302;2024-03-23T23:42:42;4.51;89.24
66119;DHT22;52912;48.564;9.302;2024-03-23T23:45:08;4.63;88.94
66119;DHT22;52912;48.564;9.302;2024-03-23T23:47:33;4.62;89.01
66119;DHT22;52912;48.564;9.302;2024-03-23T23:49:59;4.53;89.35
66119;DHT22;52912;48.564;9.302;2024-03-23T23:52:24;4.51;89.94
66119;DHT22;52912;48.564;9.302;2024-03-23T23:54:49;4.56;89.89
66119;DHT22;52912;48.564;9.302;2024-03-23T23:57:16;4.63;90.11
66119;DHT22;52912;48.564;9.302;2024-03-23T23:59:42;4.56;90.67
